Time;durP1;ratioP1;P1;durP2;ratioP2;P2;SDS_P1;SDS_P2;PMS_P1;PMS_P2;Temp;Humidity;BMP_temperature;BMP_pressure;BME280_temperature;BME280_humidity;BME280_pressure;Samples;Min_cycle;Max_cycle;Signal;HPM_P1;HPM_P2
2022/12/26 00:01:27;;;;;;;134.27;35.95;;;;;;;8.11;100.00;101019.47;5087896;28;20034;-80
2022/12/26 00:03:54;;;;;;;118.13;35.65;;;;;;;8.18;100.00;101017.66;5089269;28;20176;-79
2022/12/26 00:06:22;;;;;;;130.07;37.47;;;;;;;8.21;100.00;101022.84;5084057;28;20609;-80
2022/12/26 00:08:47;;;;;;;133.70;37.92;;;;;;;8.23;100.00;101005.47;5091571;28;20031;-80
2022/12/26 00:11:13;;;;;;;128.38;37.35;;;;;;;8.25;100.00;101013.28;5090058;28;20021;-79
2022/12/26 00:13:40;;;;;;;140.77;36.50;;;;;;;8.28;100.00;101015.84;5080652;28;20189;-79
2022/12/26 00:16:14;;;;;;;150.10;37.78;;;;;;;8.30;100.00;101022.72;5075006;28;20024;-79
2022/12/26 00:18:48;;;;;;;136.93;38.67;;;;;;;8.33;100.00;101022.69;5091432;28;20023;-79
2022/12/26 00:21:14;;;;;;;140.18;40.00;;;;;;;8.30;100.00;101021.84;5091071;28;20052;-79
2022/12/26 00:23:40;;;;;;;132.27;38.95;;;;;;;8.33;100.00;101034.81;5090513;28;20020;-79
2022/12/26 00:26:09;;;;;;;153.20;40.63;;;;;;;8.30;100.00;101029.63;5086258;28;20034;-79
2022/12/26 00:28:35;;;;;;;140.02;40.38;;;;;;;8.30;100.00;101037.44;5084202;28;20020;-79
2022/12/26 00:31:15;;;;;;;144.95;39.90;;;;;;;8.35;100.00;101040.84;5091550;28;20026;-79
2022/12/26 00:33:41;;;;;;;148.88;41.03;;;;;;;8.36;100.00;101052.97;5092365;28;20066;-80
2022/12/26 00:36:10;;;;;;;171.27;41.15;;;;;;;8.37;100.00;101052.06;5092076;28;20043;-80
2022/12/26 00:38:36;;;;;;;144.25;41.95;;;;;;;8.26;100.00;101040.94;5091641;28;20380;-79
2022/12/26 00:41:05;;;;;;;148.95;42.40;;;;;;;8.20;100.00;101040.13;5092331;28;20038;-80
2022/12/26 00:43:39;;;;;;;143.25;41.28;;;;;;;8.09;100.00;101010.81;5076902;28;20047;-80
2022/12/26 00:46:22;;;;;;;131.48;39.08;;;;;;;8.13;100.00;101014.25;5090093;28;20020;-79
2022/12/26 00:48:50;;;;;;;134.07;40.63;;;;;;;8.22;100.00;101037.53;5109052;22;20057;-80
2022/12/26 00:51:27;;;;;;;137.95;41.13;;;;;;;8.10;100.00;101033.31;5090740;28;20024;-80
2022/12/26 00:53:52;;;;;;;135.68;41.08;;;;;;;8.25;100.00;101052.22;5089589;28;20437;-79
2022/12/26 00:56:27;;;;;;;135.40;41.30;;;;;;;8.09;100.00;101035.94;5089297;28;20020;-80
2022/12/26 00:58:52;;;;;;;135.27;39.95;;;;;;;8.24;100.00;101053.97;5077737;28;20373;-80
2022/12/26 01:01:29;;;;;;;139.85;40.33;;;;;;;8.10;100.00;101037.66;5092026;28;20032;-80
2022/12/26 01:04:12;;;;;;;121.18;39.90;;;;;;;8.01;100.00;101028.22;5087465;28;20070;-80
2022/12/26 01:06:37;;;;;;;135.23;40.92;;;;;;;8.12;100.00;101023.78;5091073;28;20447;-80
2022/12/26 01:09:11;;;;;;;131.95;39.20;;;;;;;8.26;100.00;101046.16;5091671;28;20031;-80
2022/12/26 01:11:51;;;;;;;142.70;40.72;;;;;;;8.02;100.00;101024.75;5091479;28;20024;-80
2022/12/26 01:14:37;;;;;;;131.27;38.85;;;;;;;8.07;100.00;101043.72;5088852;28;20059;-80
2022/12/26 01:17:02;;;;;;;133.57;38.35;;;;;;;8.29;100.00;101079.88;5091661;28;20031;-80
2022/12/26 01:19:36;;;;;;;143.15;40.65;;;;;;;8.06;100.00;101038.56;5091296;28;20039;-80
2022/12/26 01:22:02;;;;;;;131.43;38.80;;;;;;;8.19;100.00;101077.38;5090934;28;20467;-80
2022/12/26 01:24:27;;;;;;;137.38;38.40;;;;;;;8.27;100.00;101079.88;5093983;28;20020;-80
2022/12/26 01:27:00;;;;;;;130.45;39.58;;;;;;;8.05;100.00;101040.31;5094820;28;20031;-80
2022/12/26 01:29:25;;;;;;;132.63;38.30;;;;;;;7.99;100.00;101032.56;5095144;28;20038;-80
2022/12/26 01:32:03;;;;;;;117.82;36.28;;;;;;;8.21;100.00;101075.63;5095791;28;20111;-80
2022/12/26 01:34:28;;;;;;;114.25;37.08;;;;;;;8.15;100.00;101075.69;5094154;28;20032;-79
2022/12/26 01:37:03;;;;;;;120.15;36.63;;;;;;;7.91;100.00;101036.97;5095413;28;20024;-80
2022/12/26 01:39:46;;;;;;;105.07;36.03;;;;;;;7.95;100.00;101043.88;5087187;28;20032;-79
2022/12/26 01:42:36;;;;;;;112.82;35.60;;;;;;;7.96;100.00;101042.97;5094036;28;20040;-80
2022/12/26 01:45:30;;;;;;;111.28;36.63;;;;;;;8.05;100.00;101065.41;5095109;28;20099;-80
2022/12/26 01:48:42;;;;;;;110.60;35.70;;;;;;;8.08;100.00;101086.16;5093961;28;20060;-80
2022/12/26 01:51:30;;;;;;;98.03;34.10;;;;;;;7.70;100.00;101030.25;5085508;28;20036;-80
2022/12/26 01:54:09;;;;;;;90.80;32.92;;;;;;;7.66;100.00;101028.56;5094386;28;20020;-80
2022/12/26 01:56:54;;;;;;;91.65;33.03;;;;;;;7.71;100.00;101048.38;5094563;28;20404;-80
2022/12/26 01:59:39;;;;;;;100.38;33.35;;;;;;;7.55;100.00;101033.81;5085120;28;20039;-80
2022/12/26 02:02:05;;;;;;;90.10;32.63;;;;;;;7.71;100.00;101073.47;5094313;28;20024;-80
2022/12/26 02:07:45;;;;;;;90.50;30.17;;;;;;;7.45;100.00;101034.75;5094638;28;20030;-79
2022/12/26 02:10:31;;;;;;;89.60;31.50;;;;;;;7.73;100.00;101080.38;5093227;28;20032;-80
2022/12/26 02:13:18;;;;;;;98.75;32.10;;;;;;;7.81;100.00;101076.84;5084622;28;20024;-80
2022/12/26 02:15:44;;;;;;;91.97;31.60;;;;;;;7.81;100.00;101075.13;5095800;22;20139;-80
2022/12/26 02:18:09;;;;;;;93.53;31.33;;;;;;;7.92;100.00;101090.63;5083139;28;20028;-80
2022/12/26 02:20:46;;;;;;;92.32;31.90;;;;;;;7.92;100.00;101083.69;5092601;28;20059;-80
2022/12/26 02:23:30;;;;;;;91.65;31.58;;;;;;;7.96;100.00;101087.13;5092504;28;20463;-80
2022/12/26 02:26:01;;;;;;;;;;;;;;;7.97;100.00;101081.03;5071455;22;20060;-80
2022/12/26 02:28:47;;;;;;;80.05;29.88;;;;;;;7.96;100.00;101084.53;5059682;28;19917;-80
2022/12/26 02:31:46;;;;;;;91.93;30.17;;;;;;;7.96;100.00;101080.19;5050589;28;20067;-80
2022/12/26 02:34:36;;;;;;;93.32;30.88;;;;;;;7.93;100.00;101072.41;5054366;28;20051;-80
2022/12/26 02:37:23;;;;;;;84.60;30.63;;;;;;;7.98;100.00;101077.59;5063936;28;20040;-80
2022/12/26 02:40:06;;;;;;;90.30;30.38;;;;;;;7.99;100.00;101092.28;5072578;28;20082;-80
2022/12/26 02:42:57;;;;;;;80.78;29.17;;;;;;;7.98;100.00;101082.78;5071319;28;20033;-80
2022/12/26 02:48:38;;;;;;;75.63;28.50;;;;;;;7.91;100.00;101101.84;5053214;28;20040;-79
2022/12/26 03:14:39;;;;;;;51.22;20.42;;;;;;;7.56;100.00;101092.63;5053942;28;20203;-80
2022/12/26 03:17:20;;;;;;;58.50;21.80;;;;;;;7.65;100.00;101105.53;5069445;28;20078;-79
2022/12/26 03:20:01;;;;;;;58.00;21.73;;;;;;;7.67;100.00;101100.31;5069109;28;20025;-80
2022/12/26 03:22:51;;;;;;;58.45;22.75;;;;;;;7.78;100.00;101105.44;5058664;28;20460;-79
2022/12/26 03:28:03;;;;;;;54.88;20.92;;;;;;;7.81;100.00;101085.50;5049933;28;20086;-80
2022/12/26 03:36:12;;;;;;;50.00;20.40;;;;;;;7.77;100.00;101069.97;5069574;28;20070;-80
2022/12/26 03:39:06;;;;;;;52.03;21.35;;;;;;;7.77;100.00;101072.56;5069939;28;20051;-80
2022/12/26 04:20:35;;;;;;;40.63;17.70;;;;;;;7.47;100.00;101134.19;5072186;28;20040;-80
2022/12/26 04:45:51;;;;;;;42.40;16.98;;;;;;;7.31;100.00;101091.06;5066306;28;20063;-80
2022/12/26 04:51:00;;;;;;;51.30;18.35;;;;;;;7.21;100.00;101093.69;5064795;28;20175;-79
2022/12/26 04:53:41;;;;;;;46.78;18.27;;;;;;;7.06;100.00;101067.84;5110649;22;20550;-79
2022/12/26 04:56:17;;;;;;;45.67;17.23;;;;;;;7.14;100.00;101075.59;5100481;28;20031;-80
2022/12/26 04:58:42;;;;;;;50.17;18.67;;;;;;;7.18;100.00;101087.69;5095014;28;20035;-80
2022/12/26 05:09:35;;;;;;;;;;;;;;;7.14;100.00;101101.53;5091118;28;20046;-80
2022/12/26 05:12:03;;;;;;;48.17;16.92;;;;;;;7.05;100.00;101094.66;5106800;28;19916;-80
2022/12/26 05:14:30;;;;;;;45.75;16.40;;;;;;;7.15;100.00;101114.47;5088787;28;20484;-80
2022/12/26 05:30:46;;;;;;;;;;;;;;;7.10;100.00;101125.75;5098242;28;20050;-79
2022/12/26 05:35:55;;;;;;;35.53;13.40;;;;;;;7.08;100.00;101111.94;5099279;28;20357;-80
2022/12/26 05:38:20;;;;;;;40.78;15.25;;;;;;;7.05;100.00;101102.44;5104472;28;20438;-80
2022/12/26 05:40:46;;;;;;;41.80;14.55;;;;;;;7.05;100.00;101099.84;5094724;28;20078;-79
2022/12/26 05:43:11;;;;;;;40.40;14.65;;;;;;;7.00;100.00;101101.59;5086948;28;20055;-79
2022/12/26 05:45:37;;;;;;;40.35;15.05;;;;;;;6.96;100.00;101081.72;5083845;28;20067;-80
2022/12/26 05:48:02;;;;;;;42.60;14.80;;;;;;;7.01;100.00;101083.44;5094698;28;20033;-79
2022/12/26 05:50:28;;;;;;;43.33;14.48;;;;;;;6.97;100.00;101078.28;5099202;28;20032;-79
2022/12/26 05:52:57;;;;;;;35.97;12.98;;;;;;;7.01;100.00;101085.19;5083316;28;20052;-79
2022/12/26 05:55:23;;;;;;;40.10;13.40;;;;;;;6.92;100.00;101080.88;5072824;28;20126;-80
2022/12/26 05:57:48;;;;;;;38.55;13.07;;;;;;;6.89;100.00;101080.03;5070465;28;20109;-80
2022/12/26 06:00:14;;;;;;;34.25;13.40;;;;;;;6.83;100.00;101080.06;5074322;28;20060;-80
2022/12/26 06:02:39;;;;;;;37.85;12.85;;;;;;;6.90;100.00;101086.94;5084203;28;20062;-80
2022/12/26 06:05:05;;;;;;;36.72;12.88;;;;;;;6.92;100.00;101085.22;5073134;28;20033;-79
2022/12/26 06:07:30;;;;;;;35.13;12.85;;;;;;;6.98;100.00;101092.97;5072851;28;20113;-79
2022/12/26 06:09:56;;;;;;;37.20;12.88;;;;;;;7.08;100.00;101106.75;5064169;28;20047;-80
2022/12/26 06:12:22;;;;;;;36.83;13.15;;;;;;;7.17;100.00;101117.06;5072833;28;20073;-79
2022/12/26 06:14:47;;;;;;;37.70;13.30;;;;;;;7.19;100.00;101111.03;5081653;28;20028;-79
2022/12/26 06:17:13;;;;;;;34.80;12.73;;;;;;;7.25;100.00;101110.09;5076889;28;20012;-80
2022/12/26 06:19:39;;;;;;;35.40;12.48;;;;;;;7.25;100.00;101115.28;5085413;28;20067;-80
2022/12/26 06:22:04;;;;;;;39.83;12.73;;;;;;;7.30;100.00;101125.66;5074201;28;20037;-79
2022/12/26 06:24:29;;;;;;;32.53;12.75;;;;;;;7.32;100.00;101116.13;5073606;28;20637;-79
2022/12/26 06:26:54;;;;;;;37.13;12.95;;;;;;;7.37;100.00;101124.75;5073464;28;20131;-80
2022/12/26 06:29:20;;;;;;;32.55;12.25;;;;;;;7.39;100.00;101130.75;5078397;28;20029;-80
2022/12/26 06:31:46;;;;;;;29.95;12.95;;;;;;;7.38;100.00;101134.25;5069535;28;20040;-79
2022/12/26 06:34:11;;;;;;;33.33;12.38;;;;;;;7.42;100.00;101141.13;5076471;28;20024;-79
2022/12/26 06:36:37;;;;;;;30.50;12.70;;;;;;;7.34;100.00;101140.31;5072421;28;20116;-79
2022/12/26 06:39:02;;;;;;;30.25;12.73;;;;;;;7.36;100.00;101160.19;5073312;28;20024;-79
2022/12/26 06:41:28;;;;;;;30.48;12.10;;;;;;;7.24;100.00;101145.56;5073590;28;20495;-80
2022/12/26 06:43:54;;;;;;;28.85;12.82;;;;;;;7.10;100.00;101142.16;5072788;28;20560;-79
2022/12/26 06:46:22;;;;;;;26.27;12.27;;;;;;;7.11;100.00;101153.41;5073527;28;20111;-79
2022/12/26 06:48:47;;;;;;;26.52;12.15;;;;;;;7.10;100.00;101144.75;5073880;28;20021;-79
2022/12/26 06:51:16;;;;;;;27.23;12.93;;;;;;;6.99;100.00;101141.34;5071524;28;20357;-79
2022/12/26 06:53:42;;;;;;;26.45;12.77;;;;;;;7.07;100.00;101144.78;5073319;28;20506;-79
2022/12/26 06:56:13;;;;;;;27.30;12.02;;;;;;;7.03;100.00;101143.94;5085352;28;20040;-79
2022/12/26 06:58:38;;;;;;;28.33;12.07;;;;;;;6.99;100.00;101152.56;5092747;28;20031;-80
2022/12/26 07:01:15;;;;;;;24.02;12.40;;;;;;;6.90;100.00;101142.25;5087356;28;20024;-80
2022/12/26 07:03:41;;;;;;;23.77;11.93;;;;;;;6.84;100.00;101146.59;5093993;28;20017;-80
2022/12/26 07:06:11;;;;;;;23.50;11.52;;;;;;;6.84;100.00;101146.59;5080112;28;20039;-80
2022/12/26 07:08:37;;;;;;;24.60;11.75;;;;;;;6.75;100.00;101145.75;5073591;28;20047;-80
2022/12/26 07:11:02;;;;;;;19.85;10.85;;;;;;;6.71;100.00;101143.19;5074655;28;20462;-80
2022/12/26 07:13:28;;;;;;;24.17;11.85;;;;;;;6.69;100.00;101140.56;5074727;28;20119;-80
2022/12/26 07:15:53;;;;;;;20.52;11.68;;;;;;;6.55;100.00;101130.25;5064934;28;20029;-80
2022/12/26 07:18:19;;;;;;;26.83;11.63;;;;;;;6.64;100.00;101139.75;5065998;28;20025;-79
2022/12/26 07:20:56;;;;;;;21.90;10.77;;;;;;;6.44;100.00;101107.81;5071041;28;20120;-80
2022/12/26 07:23:22;;;;;;;26.48;10.98;;;;;;;6.50;100.00;101124.22;5065451;28;20024;-79
2022/12/26 07:26:03;;;;;;;23.55;11.07;;;;;;;6.56;100.00;101144.06;5081824;28;20032;-79
2022/12/26 07:28:28;;;;;;;21.15;11.02;;;;;;;6.59;100.00;101149.25;5055329;28;20043;-79
2022/12/26 07:31:06;;;;;;;22.27;11.68;;;;;;;6.62;100.00;101151.81;5074524;28;20024;-79
2022/12/26 07:33:54;;;;;;;23.70;11.23;;;;;;;6.56;100.00;101125.94;5064301;28;20036;-79
2022/12/26 07:36:19;;;;;;;23.23;10.90;;;;;;;6.68;100.00;101154.41;5076091;28;20039;-79
2022/12/26 07:38:57;;;;;;;21.65;10.65;;;;;;;6.68;100.00;101159.59;5090126;28;20024;-79
2022/12/26 07:44:07;;;;;;;;;;;;;;;6.65;100.00;101166.50;5074159;28;20093;-79
2022/12/26 07:46:33;;;;;;;24.65;11.30;;;;;;;6.67;100.00;101159.56;5082126;28;19917;-79
2022/12/26 07:48:58;;;;;;;24.15;10.88;;;;;;;6.55;100.00;101147.53;5072612;28;20021;-79
2022/12/26 07:51:23;;;;;;;22.92;11.15;;;;;;;6.54;100.00;101148.41;5071840;28;20029;-79
2022/12/26 07:53:49;;;;;;;25.55;11.00;;;;;;;6.64;100.00;101159.56;5071668;28;20044;-79
2022/12/26 07:56:14;;;;;;;24.60;11.60;;;;;;;6.62;100.00;101158.75;5072454;28;20024;-79
2022/12/26 07:58:40;;;;;;;21.52;10.65;;;;;;;6.65;100.00;101159.59;5077315;28;20043;-79
2022/12/26 08:01:05;;;;;;;25.92;11.95;;;;;;;6.58;100.00;101163.06;5072336;28;20167;-79
2022/12/26 08:03:32;;;;;;;34.17;11.00;;;;;;;6.67;100.00;101177.72;5089316;28;20020;-79
2022/12/26 08:05:58;;;;;;;22.48;11.05;;;;;;;6.63;100.00;101174.25;5092734;28;20028;-79
2022/12/26 08:08:23;;;;;;;22.40;11.27;;;;;;;6.60;100.00;101165.63;5075971;28;20031;-79
2022/12/26 08:11:06;;;;;;;24.65;11.30;;;;;;;6.66;100.00;101179.44;5072454;28;20016;-79
2022/12/26 08:13:32;;;;;;;18.55;9.80;;;;;;;6.62;100.00;101167.38;5064690;28;20020;-80
2022/12/26 08:15:57;;;;;;;25.70;10.82;;;;;;;6.70;100.00;101173.41;5070460;28;20364;-79
2022/12/26 08:18:24;;;;;;;21.38;10.68;;;;;;;6.72;100.00;101175.97;5070890;28;20028;-79
2022/12/26 08:20:49;;;;;;;27.23;10.27;;;;;;;6.79;100.00;101178.53;5071983;28;20017;-79
2022/12/26 08:23:15;;;;;;;22.17;10.43;;;;;;;6.77;100.00;101164.75;5065694;28;20033;-79
2022/12/26 08:25:41;;;;;;;21.95;10.52;;;;;;;6.85;100.00;101176.81;5071560;28;20434;-79
2022/12/26 08:28:06;;;;;;;21.77;10.70;;;;;;;6.94;100.00;101169.88;5071385;28;20422;-79
2022/12/26 08:30:32;;;;;;;22.58;10.38;;;;;;;6.94;100.00;101163.84;5081532;28;20029;-79
2022/12/26 08:32:57;;;;;;;24.23;11.05;;;;;;;7.06;100.00;101184.50;5070956;28;20157;-79
2022/12/26 08:35:22;;;;;;;24.13;11.05;;;;;;;7.09;100.00;101179.31;5071675;28;20028;-79
2022/12/26 08:37:47;;;;;;;20.02;10.02;;;;;;;7.11;100.00;101184.50;5071200;28;20046;-79
2022/12/26 08:40:13;;;;;;;23.77;10.63;;;;;;;7.09;100.00;101179.31;5072049;28;20032;-79
2022/12/26 08:42:39;;;;;;;21.13;9.95;;;;;;;7.20;100.00;101187.06;5071784;28;20033;-79
2022/12/26 08:45:04;;;;;;;22.02;10.13;;;;;;;7.27;100.00;101197.41;5070280;28;20622;-79
2022/12/26 08:47:30;;;;;;;21.77;10.40;;;;;;;7.14;100.00;101172.41;5071651;28;20423;-79
2022/12/26 08:49:55;;;;;;;21.48;9.88;;;;;;;7.40;100.00;101199.94;5081270;28;20075;-79
2022/12/26 08:52:20;;;;;;;23.95;9.57;;;;;;;7.49;100.00;101205.09;5085980;28;20040;-79
2022/12/26 08:54:46;;;;;;;19.05;9.15;;;;;;;7.58;100.00;101201.56;5090918;28;20032;-79
2022/12/26 08:57:11;;;;;;;16.30;8.35;;;;;;;7.60;100.00;101202.44;5089446;28;20048;-79
2022/12/26 08:59:37;;;;;;;13.13;8.30;;;;;;;7.62;100.00;101211.94;5096638;28;20407;-79
2022/12/26 09:02:02;;;;;;;19.50;8.40;;;;;;;7.70;100.00;101206.72;5092600;28;20020;-79
2022/12/26 09:04:27;;;;;;;16.30;7.15;;;;;;;7.73;100.00;101211.88;5129785;22;20256;-79
2022/12/26 09:06:53;;;;;;;17.08;6.85;;;;;;;7.80;100.00;101217.91;5112486;28;20031;-79
2022/12/26 09:09:18;;;;;;;15.68;6.80;;;;;;;7.84;100.00;101209.22;5111318;28;20370;-80
2022/12/26 09:11:44;;;;;;;10.57;5.93;;;;;;;7.94;100.00;101219.53;5109371;28;20056;-79
2022/12/26 09:14:10;;;;;;;12.88;5.82;;;;;;;7.82;100.00;101196.25;5111219;28;20367;-78
2022/12/26 09:16:41;;;;;;;9.52;5.25;;;;;;;8.19;100.00;101224.56;5111184;28;20037;-78
2022/12/26 09:19:09;;;;;;;8.48;4.93;;;;;;;8.27;100.00;101233.13;5109679;28;20028;-78
2022/12/26 09:21:35;;;;;;;9.43;4.95;;;;;;;8.28;100.00;101226.22;5112524;28;20111;-80
2022/12/26 09:24:03;;;;;;;11.15;4.10;;;;;;;8.32;100.00;101230.53;5111554;28;20542;-79
2022/12/26 09:26:29;;;;;;;9.73;3.72;;;;;;;8.28;100.00;101215.84;5110871;28;20390;-80
2022/12/26 09:28:55;;;;;;;7.53;3.72;;;;;;;8.41;100.00;101233.94;5111988;28;20024;-80
2022/12/26 09:31:23;;;;;;;8.15;3.58;;;;;;;8.49;100.00;101236.47;5112011;28;20023;-80
2022/12/26 09:33:49;;;;;;;12.95;3.70;;;;;;;8.34;100.00;101218.41;5109993;28;20036;-80
2022/12/26 09:36:24;;;;;;;7.88;3.65;;;;;;;8.46;100.00;101251.22;5111992;28;20016;-80
2022/12/26 09:39:14;;;;;;;9.35;3.22;;;;;;;8.35;100.00;101239.16;5097779;28;20031;-80
2022/12/26 09:42:15;;;;;;;13.70;3.30;;;;;;;8.44;100.00;101252.09;5104142;28;20031;-82
2022/12/26 09:45:05;;;;;;;8.82;3.30;;;;;;;8.32;100.00;101243.50;5106596;28;20047;-80
2022/12/26 09:48:03;;;;;;;8.25;2.78;;;;;;;8.34;100.00;101252.16;5113640;28;20172;-80
2022/12/26 09:50:32;;;;;;;8.50;2.70;;;;;;;8.25;100.00;101236.66;5101238;27;20424;-80
2022/12/26 09:53:13;;;;;;;8.98;3.17;;;;;;;8.24;100.00;101227.09;5113938;27;20427;-80
2022/12/26 09:55:53;;;;;;;5.30;3.15;;;;;;;8.27;100.00;101238.31;5112563;28;20427;-81
2022/12/26 09:58:49;;;;;;;7.00;3.35;;;;;;;8.53;100.00;101278.88;5114452;27;20450;-80
2022/12/26 10:01:19;;;;;;;8.82;3.30;;;;;;;8.41;100.00;101261.66;5114122;28;20024;-80
2022/12/26 10:04:20;;;;;;;8.18;3.42;;;;;;;8.51;100.00;101285.84;5113306;28;20059;-80
2022/12/26 10:07:17;;;;;;;6.80;3.42;;;;;;;8.47;100.00;101289.31;5107006;28;20036;-79
2022/12/26 10:10:09;;;;;;;9.73;3.38;;;;;;;8.51;100.00;101296.22;5107054;28;20079;-80
2022/12/26 10:12:59;;;;;;;6.63;3.03;;;;;;;8.44;100.00;101280.69;5102186;28;20110;-80
2022/12/26 10:15:51;;;;;;;5.47;3.03;;;;;;;8.37;100.00;101252.09;5113531;27;20040;-79
2022/12/26 10:18:21;;;;;;;8.48;2.85;;;;;;;8.64;100.00;101295.25;5106770;28;20115;-80
2022/12/26 10:21:05;;;;;;;8.40;3.53;;;;;;;8.64;100.00;101306.50;5113654;27;20032;-79
2022/12/26 10:23:42;;;;;;;;;;;;;;;8.64;100.00;101309.13;5105196;27;20038;-78
2022/12/26 10:26:27;;;;;;;7.30;3.20;;;;;;;8.65;100.00;101310.81;5094595;28;19926;-80
2022/12/26 10:28:57;;;;;;;5.82;2.80;;;;;;;8.65;100.00;101303.03;5100486;27;20024;-79
2022/12/26 10:31:40;;;;;;;4.70;3.10;;;;;;;8.62;100.00;101297.84;5112829;28;20039;-78
2022/12/26 10:34:30;;;;;;;10.25;3.20;;;;;;;8.62;100.00;101303.06;5111240;27;20030;-78
2022/12/26 10:37:01;;;;;;;5.95;2.70;;;;;;;8.64;100.00;101305.66;5111225;27;20039;-78
2022/12/26 10:39:41;;;;;;;7.05;3.10;;;;;;;8.36;100.00;101318.81;5111940;28;20024;-79
2022/12/26 10:42:37;;;;;;;8.35;2.60;;;;;;;8.15;100.00;101360.50;5112589;28;20024;-81
2022/12/26 10:45:21;;;;;;;4.88;1.92;;;;;;;7.68;100.00;101375.41;5112830;27;20569;-80
2022/12/26 10:47:49;;;;;;;9.15;2.20;;;;;;;7.36;100.00;101366.84;5112977;28;20103;-81
2022/12/26 10:50:23;;;;;;;9.20;2.10;;;;;;;7.20;100.00;101374.63;5100400;28;20471;-81
2022/12/26 10:52:49;;;;;;;7.03;2.28;;;;;;;7.11;100.00;101372.06;5099431;28;20035;-81
2022/12/26 10:55:44;;;;;;;11.38;2.55;;;;;;;7.02;100.00;101372.91;5139812;22;20051;-80
2022/12/26 10:58:39;;;;;;;9.40;2.60;;;;;;;7.11;100.00;101392.78;5035413;28;20125;-80
2022/12/26 11:01:30;;;;;;;11.02;2.25;;;;;;;7.10;100.00;101401.44;5054323;28;20059;-80
2022/12/26 11:04:01;;;;;;;8.63;2.75;;;;;;;7.06;100.00;101398.84;5056701;28;20116;-79
2022/12/26 11:06:38;;;;;;;7.97;2.67;;;;;;;7.08;100.00;101402.31;5071227;28;20035;-79
2022/12/26 11:09:05;;;;;;;13.32;3.10;;;;;;;7.19;100.00;101401.44;5072419;28;20024;-80
2022/12/26 11:14:37;;;;;;;12.35;2.90;;;;;;;7.30;100.00;101423.91;5072779;28;20544;-80
2022/12/26 11:17:06;;;;;;;10.88;3.58;;;;;;;7.37;100.00;101417.84;5073010;28;20038;-80
2022/12/26 11:19:39;;;;;;;10.70;3.40;;;;;;;7.45;100.00;101421.28;5071951;28;20028;-80
2022/12/26 11:22:19;;;;;;;14.98;3.92;;;;;;;7.37;100.00;101423.03;5072731;28;20491;-79
2022/12/26 11:24:44;;;;;;;16.83;3.38;;;;;;;7.34;100.00;101425.63;5072656;28;20042;-80
2022/12/26 11:27:18;;;;;;;12.38;3.40;;;;;;;7.26;100.00;101429.09;5072772;28;20511;-80
2022/12/26 11:29:43;;;;;;;;;;;;;;;7.25;100.00;101432.53;5073221;28;20025;-79
2022/12/26 11:32:20;;;;;;;16.55;3.85;;;;;;;7.06;100.00;101420.44;5072134;28;19916;-79
2022/12/26 11:34:48;;;;;;;15.52;3.40;;;;;;;7.02;100.00;101436.84;5072637;28;20024;-79
2022/12/26 11:37:27;;;;;;;16.83;3.75;;;;;;;6.92;100.00;101437.72;5072732;28;20087;-80
2022/12/26 11:39:57;;;;;;;17.58;4.13;;;;;;;6.90;100.00;101447.22;5072465;28;20096;-79
2022/12/26 11:42:24;;;;;;;15.52;4.78;;;;;;;6.75;100.00;101428.19;5072205;28;20063;-79
2022/12/26 11:44:54;;;;;;;16.85;4.15;;;;;;;6.65;100.00;101429.03;5072810;28;20128;-79
2022/12/26 11:47:24;;;;;;;13.30;4.80;;;;;;;6.64;100.00;101448.06;5071317;28;20012;-79
2022/12/26 11:50:10;;;;;;;19.13;3.72;;;;;;;6.50;100.00;101454.91;5072434;28;20060;-79
2022/12/26 11:53:04;;;;;;;17.65;3.80;;;;;;;6.42;100.00;101461.78;5072523;28;20035;-79
2022/12/26 11:55:35;;;;;;;11.80;3.57;;;;;;;6.28;100.00;101448.81;5058790;28;20051;-79
2022/12/26 11:58:16;;;;;;;12.52;3.65;;;;;;;6.33;100.00;101463.47;5072693;28;20294;-79
2022/12/26 12:01:01;;;;;;;8.85;3.10;;;;;;;6.18;100.00;101453.06;5072069;28;20021;-79
2022/12/26 12:03:33;;;;;;;12.10;2.85;;;;;;;6.23;100.00;101458.25;5072247;28;20039;-79
2022/12/26 12:06:32;;;;;;;13.70;2.90;;;;;;;6.30;100.00;101481.59;5072234;28;20028;-79
2022/12/26 12:09:20;;;;;;;11.68;3.20;;;;;;;6.25;100.00;101478.13;5070937;28;20024;-79
2022/12/26 12:11:51;;;;;;;12.70;2.90;;;;;;;6.21;100.00;101478.97;5072039;28;20028;-79
2022/12/26 12:14:56;;;;;;;9.90;2.75;;;;;;;6.14;100.00;101482.38;5070868;28;20024;-79
2022/12/26 12:17:58;;;;;;;17.65;3.88;;;;;;;6.15;100.00;101489.31;5072135;28;20020;-79
2022/12/26 12:20:45;;;;;;;10.98;2.97;;;;;;;6.04;100.00;101496.13;5071745;28;20029;-79
2022/12/26 12:23:38;;;;;;;13.75;3.70;;;;;;;5.93;100.00;101490.03;5071403;28;20029;-79
2022/12/26 12:26:06;;;;;;;13.43;3.33;;;;;;;6.00;100.00;101491.81;5058762;28;20103;-79
2022/12/26 12:28:49;;;;;;;10.00;2.83;;;;;;;5.87;100.00;101486.50;5071476;28;20630;-79
2022/12/26 12:31:30;;;;;;;11.93;3.50;;;;;;;5.84;100.00;101483.91;5071949;28;20388;-79
2022/12/26 12:34:18;;;;;;;9.20;2.60;;;;;;;5.84;100.00;101494.25;5071828;28;20021;-79
2022/12/26 12:37:35;;;;;;;11.20;3.38;;;;;;;5.83;100.00;101494.25;5033702;28;20123;-79
2022/12/26 12:40:20;;;;;;;13.20;3.38;;;;;;;5.74;100.00;101508.00;5043089;28;20040;-79
2022/12/26 12:43:03;;;;;;;11.30;2.95;;;;;;;5.67;100.00;101508.81;5071138;28;20021;-79
2022/12/26 12:45:33;;;;;;;12.52;2.92;;;;;;;5.60;100.00;101504.44;5071703;28;20039;-79
2022/12/26 12:48:28;;;;;;;12.88;3.13;;;;;;;5.58;100.00;101516.50;5071810;28;20100;-79
2022/12/26 12:51:13;;;;;;;7.45;2.50;;;;;;;5.60;100.00;101515.66;5071496;28;20028;-79
2022/12/26 12:53:38;;;;;;;11.20;3.00;;;;;;;5.59;100.00;101516.53;5071304;28;20108;-79
2022/12/26 12:56:04;;;;;;;4.47;1.90;;;;;;;5.53;100.00;101518.19;5071036;28;20049;-79
2022/12/26 12:58:48;;;;;;;9.10;1.95;;;;;;;5.46;100.00;101530.22;5072033;28;20082;-79
2022/12/26 13:01:29;;;;;;;8.98;2.00;;;;;;;5.47;100.00;101531.94;5071835;28;20029;-79
2022/12/26 13:04:13;;;;;;;6.45;1.90;;;;;;;5.50;100.00;101529.38;5053319;28;20079;-79
2022/12/26 13:07:06;;;;;;;;;;;;;;;5.49;100.00;101531.94;5072018;28;20017;-79
2022/12/26 13:09:39;;;;;;;5.40;1.90;;;;;;;5.51;100.00;101531.09;5068974;28;19916;-79
2022/12/26 13:12:17;;;;;;;3.90;1.58;;;;;;;5.53;100.00;101525.94;5071039;28;20433;-79
2022/12/26 13:14:46;;;;;;;7.10;1.98;;;;;;;5.51;100.00;101514.72;5071968;28;20029;-79
2022/12/26 13:17:18;;;;;;;6.90;1.85;;;;;;;5.53;100.00;101533.72;5070873;28;20028;-79
2022/12/26 13:20:11;;;;;;;6.30;2.05;;;;;;;5.39;100.00;101516.38;5073971;28;20066;-80
2022/12/26 13:26:25;;;;;;;6.43;1.83;;;;;;;5.46;100.00;101537.06;5074718;28;20074;-79
2022/12/26 13:29:12;;;;;;;9.13;2.13;;;;;;;5.53;100.00;101547.50;5075138;28;20027;-79
2022/12/26 13:31:44;;;;;;;7.13;1.95;;;;;;;5.37;100.00;101512.88;5074827;28;20024;-79
2022/12/26 13:34:35;;;;;;;6.90;2.10;;;;;;;5.31;100.00;101522.31;5074729;28;20475;-79
2022/12/26 13:37:03;;;;;;;6.90;1.80;;;;;;;5.14;100.00;101498.88;5075396;28;20036;-80
2022/12/26 13:39:39;;;;;;;5.57;1.75;;;;;;;5.30;100.00;101526.63;5074011;28;20044;-79
2022/12/26 13:45:36;;;;;;;6.68;1.90;;;;;;;5.38;100.00;101537.88;5062943;28;20040;-80
2022/12/26 13:48:16;;;;;;;10.40;2.30;;;;;;;5.55;100.00;101557.84;4993396;28;20109;-79
2022/12/26 13:51:01;;;;;;;5.97;1.80;;;;;;;5.61;100.00;101569.13;4993234;28;20464;-80
2022/12/26 13:54:01;;;;;;;4.85;1.92;;;;;;;5.52;100.00;101571.63;4992626;28;20025;-79
2022/12/26 13:56:39;;;;;;;6.15;2.05;;;;;;;5.45;100.00;101575.00;4993091;28;20050;-79
2022/12/26 13:59:37;;;;;;;7.07;1.85;;;;;;;5.13;100.00;101529.03;4993477;28;20030;-79
2022/12/26 14:02:48;;;;;;;6.88;1.88;;;;;;;5.45;100.00;101576.72;4992907;28;20070;-80
2022/12/26 14:05:42;;;;;;;6.20;1.92;;;;;;;5.09;100.00;101527.25;4992938;28;20506;-80
2022/12/26 14:08:35;;;;;;;6.65;1.80;;;;;;;5.33;100.00;101586.13;4999601;28;20064;-80